• Join FlightAware (Why Join?)
  • Login
  • US Flag 
07:15PM EST


 

Airport Tracker/Info


-or-


 

Live Flight TrackerFlight Track Log ✈ N23139 ✈ 02-May-2013 ✈ KEWR - KMCI

Flight Track Log - Related Links

Times and Time Zones

All times are in EDT time to prevent confusion due to time zone crossing. See the N23139 flight status page for this flight to view local times or setup timezone preferences in your user account.

Time Position Orientation Groundspeed Altitude Reporting Facility
EDT Latitude Longitude Course Direction KTS MPH feet Rate Location/Type
02:56PM 40.6500 -74.2000 270° West 181 208 1,800  Level New York TRACON
02:57PM 40.6333 -74.2500 246° West 255 293 3,200 2,160 Climbing New York TRACON
02:58PM 40.6500 -74.3500 282° West 279 321 6,000 2,820 Climbing New York TRACON
02:59PM 40.7515 -74.7190 276° West  Level FlightAware Approximate
02:59PM 40.6667 -74.4500 282° West 287 330 8,900  Level New York TRACON
03:00PM 40.7625 -74.8621 276° West  Level FlightAware Approximate
03:01PM 40.7833 -75.0010 270° West  Level FlightAware Approximate
03:01PM 40.7772 -74.5856 317° Northwest 271 312 12,100  Level New York Center
03:02PM 40.8483 -74.6336 333° Northwest 276 318 14,200 1,740 Climbing New York Center
03:03PM 40.8464 -74.7542 269° West 285 328 15,700 1,260 Climbing New York Center
03:04PM 40.8336 -74.8878 263° West 327 376 16,700 1,020 Climbing New York Center
03:05PM 40.8186 -75.0158 261° West 386 444 17,800 1,560 Climbing New York Center
03:06PM 40.7983 -75.1706 260° West 400 460 19,800 2,040 Climbing New York Center
03:07PM 40.7786 -75.3064 259° West 393 452 21,900 1,980 Climbing New York Center
03:08PM 40.7483 -75.4414 254° West 386 444 23,900 1,800 Climbing New York Center
03:09PM 40.6997 -75.5639 242° Southwest 380 437 25,500 1,560 Climbing New York Center
03:10PM 40.6528 -75.6894 244° Southwest 385 443 27,000 1,440 Climbing New York Center
03:11PM 40.6058 -75.8144 244° Southwest 391 450 28,500 1,560 Climbing New York Center
03:12PM 40.5567 -75.9419 243° Southwest 391 450 30,200 1,500 Climbing New York Center
03:13PM 40.5097 -76.0639 243° Southwest 391 450 31,600 1,380 Climbing New York Center
03:14PM 40.4625 -76.1831 243° Southwest 385 443 33,000 1,440 Climbing New York Center
03:15PM 40.4233 -76.3083 248° West 374 430 34,500 1,140 Climbing New York Center
03:16PM 40.3933 -76.4147 250° West 361 415 35,400 720 Climbing New York Center
03:17PM 40.3597 -76.5483 252° West 361 415 36,000 240 Climbing New York Center
03:18PM 40.3219 -76.6814 250° West 369 425 36,000  Level New York Center
03:19PM 40.2861 -76.8144 251° West 385 443 36,000  Level New York Center
03:20PM 40.2472 -76.9606 251° West 410 472 36,000  Level New York Center
03:21PM 40.2036 -77.1117 249° West 428 493 36,000  Level New York Center
03:22PM 40.1622 -77.2600 250° West 443 510 36,000  Level New York Center
03:24PM 40.1131 -77.5806 259° West 450 518 36,000  Level Cleveland Center
03:25PM 40.1108 -77.7408 269° West 450 518 36,000  Level Cleveland Center
03:26PM 40.1086 -77.9011 269° West 445 512 36,000  Level Cleveland Center
03:27PM 40.1019 -78.0669 267° West 450 518 36,000  Level Cleveland Center
03:28PM 40.0969 -78.2272 268° West 450 518 36,000  Level Cleveland Center
03:29PM 40.0961 -78.3875 270° West 450 518 36,000  Level Cleveland Center
03:30PM 40.0928 -78.5503 269° West 450 518 36,000  Level Cleveland Center
03:31PM 40.0853 -78.7133 267° West 450 518 36,000  Level Cleveland Center
03:32PM 40.0836 -78.8708 269° West 450 518 36,000  Level Cleveland Center
03:33PM 40.0775 -79.0283 267° West 439 505 36,000  Level Cleveland Center
03:34PM 40.0753 -79.1858 269° West 439 505 36,000  Level Cleveland Center
03:35PM 40.0728 -79.3242 269° West 439 505 36,000  Level Cleveland Center
03:36PM 40.0703 -79.4817 269° West 439 505 36,000  Level Cleveland Center
03:37PM 40.0633 -79.6419 267° West 439 505 36,000  Level Cleveland Center
03:38PM 40.0583 -79.7992 268° West 439 505 36,000  Level Cleveland Center
03:39PM 40.0531 -79.9539 267° West 439 505 36,000  Level Cleveland Center
03:40PM 40.0475 -80.1086 267° West 439 505 36,000  Level Cleveland Center
03:41PM 40.0397 -80.2658 266° West 439 505 36,000  Level Cleveland Center
03:42PM 40.0358 -80.4231 268° West 439 505 36,000  Level Cleveland Center
03:43PM 40.0211 -80.6803 266° West 434 499 36,000  Level Indianapolis Center
03:44PM 40.0167 -80.8375 268° West 431 496 36,000  Level Indianapolis Center
03:45PM 40.0136 -81.0236 269° West 435 501 36,000  Level Indianapolis Center
03:46PM 40.0117 -81.1817 269° West 432 497 36,000  Level Indianapolis Center
03:47PM 40.0081 -81.3417 268° West 436 502 36,000  Level Indianapolis Center
03:49PM 40.0058 -81.5011 269° West 435 501 36,000  Level Indianapolis Center
03:50PM 40.0025 -81.6611 268° West 437 503 36,000  Level Indianapolis Center
03:51PM 39.9986 -81.8372 268° West 438 504 36,000  Level Indianapolis Center
03:52PM 39.9953 -81.9967 268° West 438 504 36,000  Level Indianapolis Center
03:53PM 39.9914 -82.1564 268° West 437 503 36,000  Level Indianapolis Center
03:54PM 39.9869 -82.3161 268° West 438 504 36,000  Level Indianapolis Center
03:55PM 39.9828 -82.4767 268° West 439 505 36,000  Level Indianapolis Center
03:56PM 39.9789 -82.6356 268° West 437 503 36,000  Level Indianapolis Center
03:57PM 39.9736 -82.7958 268° West 439 505 36,000  Level Indianapolis Center
03:58PM 39.9678 -82.9831 268° West 440 506 36,000  Level Indianapolis Center
03:59PM 39.9642 -83.1425 268° West 439 505 36,000  Level Indianapolis Center
04:00PM 39.9600 -83.3025 268° West 442 509 36,000  Level Indianapolis Center
04:01PM 39.9553 -83.4664 268° West 442 509 36,000  Level Indianapolis Center
04:02PM 39.9475 -83.6456 267° West 445 512 36,000  Level Indianapolis Center
04:03PM 39.9414 -83.8047 267° West 442 509 36,000  Level Indianapolis Center
04:04PM 39.9353 -83.9650 267° West 443 510 36,000  Level Indianapolis Center
04:05PM 39.9278 -84.1261 267° West 444 511 36,000  Level Indianapolis Center
04:06PM 39.9217 -84.2867 267° West 442 509 36,000  Level Indianapolis Center
04:07PM 39.9139 -84.4478 266° West 442 509 36,000  Level Indianapolis Center
04:08PM 39.9078 -84.6094 267° West 443 510 36,000  Level Indianapolis Center
04:09PM 39.8983 -84.7986 266° West 445 512 36,000  Level Indianapolis Center
04:10PM 39.8906 -84.9600 266° West 444 511 36,000  Level Indianapolis Center
04:11PM 39.8828 -85.1200 266° West 444 511 36,000  Level Indianapolis Center
04:12PM 39.8747 -85.2781 266° West 442 509 36,000  Level Indianapolis Center
04:13PM 39.8667 -85.4364 266° West 441 507 36,000  Level Indianapolis Center
04:14PM 39.8586 -85.5964 266° West 443 510 36,000  Level Indianapolis Center
04:15PM 39.8478 -85.7867 266° West 441 507 36,000  Level Indianapolis Center
04:16PM 39.8394 -85.9456 266° West 444 511 36,000  Level Indianapolis Center
04:17PM 39.8308 -86.1039 266° West 443 510 36,000  Level Indianapolis Center
04:19PM 39.8189 -86.2758 265° West 441 507 36,000  Level Indianapolis Center
04:20PM 39.8167 -86.4464 269° West 449 517 36,000  Level Indianapolis Center
04:21PM 39.8194 -86.6058 271° West 449 517 36,000  Level Indianapolis Center
04:22PM 39.8228 -86.7658 272° West 445 512 36,000  Level Indianapolis Center
04:23PM 39.8253 -86.9267 271° West 447 514 36,000  Level Indianapolis Center
04:24PM 39.8283 -87.1183 271° West 445 512 36,000  Level Indianapolis Center
04:25PM 39.8306 -87.2789 271° West 445 512 36,000  Level Indianapolis Center
04:26PM 39.8325 -87.4397 271° West 446 513 36,000  Level Indianapolis Center
04:27PM 39.8353 -87.6000 271° West 446 513 36,000  Level Indianapolis Center
04:28PM 39.8364 -87.7606 271° West 445 512 36,000  Level Indianapolis Center
04:29PM 39.8375 -87.9189 271° West 443 510 36,000  Level Indianapolis Center
04:30PM 39.8386 -88.1067 271° West 438 504 36,000  Level Indianapolis Center
04:31PM 39.8417 -88.2625 272° West 434 499 36,000  Level Indianapolis Center
04:32PM 39.8422 -88.4228 270° West 436 502 36,000  Level Kansas City Center
04:33PM 39.8411 -88.5803 270° West 435 501 36,000  Level Kansas City Center
04:34PM 39.8425 -88.7364 271° West 432 497 36,000  Level Kansas City Center
04:35PM 39.8422 -88.9222 270° West 430 495 36,000  Level Kansas City Center
04:36PM 39.8425 -89.0786 270° West 431 496 36,000  Level Kansas City Center
04:37PM 39.8417 -89.2344 270° West 430 495 36,000  Level Kansas City Center
04:38PM 39.8408 -89.3894 270° West 429 494 36,000  Level Kansas City Center
04:39PM 39.8397 -89.5469 270° West 432 497 36,000  Level Kansas City Center
04:41PM 39.8334 -89.7263 270° West  Level FlightAware Approximate
04:44PM 39.8461 -90.3678 270° West 435 501 36,000  Level Kansas City Center
04:45PM 39.8464 -90.5253 260° West 434 499 36,000  Level Kansas City Center
04:46PM 39.8387 -90.5230 266° West  Level FlightAware Approximate
04:47PM 39.8478 -90.6811 271° West 432 497 36,000  Level Kansas City Center
04:48PM 39.8336 -90.7456 270° West  Level FlightAware Approximate
04:48PM 39.8475 -90.8375 270° West 431 496 36,000  Level Kansas City Center
04:49PM 39.8338 -90.8912 270° West  Level FlightAware Approximate
04:49PM 39.8472 -91.0019 270° West 432 497 36,000  Level Kansas City Center
04:50PM 39.8337 -91.0368 270° West  Level FlightAware Approximate
04:50PM 39.8486 -91.1558 271° West 430 495 36,000  Level Kansas City Center
04:51PM 39.8442 -91.3400 268° West 428 493 36,000  Level Kansas City Center
04:52PM 39.8317 -91.4931 264° West 426 490 36,000  Level Kansas City Center
04:53PM 39.8220 -91.5426 267° West  Level FlightAware Approximate
04:53PM 39.8219 -91.6442 265° West 423 487 36,000  Level Kansas City Center
04:54PM 39.8136 -91.6878 260° West  Level FlightAware Approximate
04:54PM 39.8089 -91.7969 264° West 426 490 36,000  Level Kansas City Center
04:55PM 39.7986 -91.9456 265° West 420 483 36,000  Level Kansas City Center
04:56PM 39.7864 -92.0906 264° West 409 471 36,000  Level Kansas City Center
04:57PM 39.7725 -92.2653 264° West 407 468 36,000 -720 Level Kansas City Center
04:58PM 39.7608 -92.4114 264° West 407 468 34,600 -1,500 Descending Kansas City Center
04:59PM 39.7486 -92.5567 264° West 406 467 33,000 -1,500 Descending Kansas City Center
05:00PM 39.7353 -92.7072 263° West 411 473 31,500 -1,620 Descending Kansas City Center
05:01PM 39.7231 -92.8544 264° West 411 473 29,700 -1,920 Descending Kansas City Center
05:02PM 39.7097 -93.0000 263° West 411 473 27,600 -2,220 Descending Kansas City Center
05:03PM 39.6961 -93.1711 264° West 399 459 25,200 -2,160 Descending Kansas City Center
05:04PM 39.6822 -93.3067 262° West 386 444 23,200 -1,980 Descending Kansas City Center
05:05PM 39.6706 -93.4406 264° West 379 436 21,100 -1,980 Descending Kansas City Center
05:06PM 39.6594 -93.5703 264° West 370 426 19,100 -1,800 Descending Kansas City Center
05:07PM 39.6478 -93.6928 263° West 348 400 17,500 -1,860 Descending Kansas City Center
05:08PM 39.6336 -93.8244 262° West 342 394 15,300 -2,220 Descending Kansas City Center
05:09PM 39.5958 -93.9450 248° West 324 373 13,000 -1,620 Descending Kansas City Center
05:10PM 39.5486 -94.0369 236° Southwest 320 368 12,000 -540 Descending Kansas City Center
05:11PM 39.4953 -94.1439 237° Southwest 317 365 12,000  Level Kansas City Center
05:12PM 39.4494 -94.2361 237° Southwest 317 365 12,000  Level Kansas City Center
05:13PM 39.3950 -94.3406 236° Southwest 313 360 12,000  Level Kansas City Center
05:14PM 39.3536 -94.4219 237° Southwest 275 316 12,000 -540 Level Kansas City Center
05:15PM 39.3150 -94.4972 236° Southwest 225 259 10,900 -1,260 Descending Kansas City Center
05:16PM 39.2842 -94.5572 236° Southwest 210 242 9,500 -960 Descending Kansas City Center
05:18PM 39.2386 -94.6058 220° Southwest 231 266 9,000 -480 Descending Kansas City Center
05:19PM 39.1697 -94.6289 195° South 228 262 8,600 -900 Descending Kansas City Center
05:20PM 39.1075 -94.6489 194° South 238 274 7,200 -780 Descending Kansas City Center
05:21PM 39.0350 -94.6719 194° South 239 275 7,000 -540 Descending Kansas City Center
05:22PM 38.9969 -94.7206 225° Southwest 231 266 6,200 -780 Descending Kansas City Center
05:23PM 39.0075 -94.7900 281° West 195 224 5,400 -900 Descending Kansas City Center
05:24PM 39.0497 -94.7781 12° North 163 188 4,400 -1,020 Descending Kansas City Center
05:25PM 39.0939 -94.7644 13° North 148 170 3,400 -720 Descending Kansas City Center
05:26PM 39.1322 -94.7542 12° North 147 169 3,000 -240 Descending Kansas City Center
05:27PM 39.1750 -94.7411 13° North 143 165 3,000  Level Kansas City Center